sensor_id;sensor_type;location;lat;lon;timestamp;pressure;altitude;pressure_sealevel;temperature;humidity
78835;BME280;68187;42.682;23.352;2024-01-30T00:01:20;97114.09;;;-0.31;61.73
78835;BME280;68187;42.682;23.352;2024-01-30T00:03:47;97112.53;;;-0.42;61.84
78835;BME280;68187;42.682;23.352;2024-01-30T00:06:20;97105.78;;;-0.35;61.92
78835;BME280;68187;42.682;23.352;2024-01-30T00:08:47;97113.63;;;-0.27;61.83
78835;BME280;68187;42.682;23.352;2024-01-30T00:11:16;97110.97;;;-0.17;61.73
78835;BME280;68187;42.682;23.352;2024-01-30T00:13:43;97112.97;;;-0.11;61.84
78835;BME280;68187;42.682;23.352;2024-01-30T00:16:20;97114.66;;;-0.02;61.58
78835;BME280;68187;42.682;23.352;2024-01-30T00:18:47;97111.56;;;-0.06;60.94
78835;BME280;68187;42.682;23.352;2024-01-30T00:21:13;97116.81;;;-0.15;61.64
78835;BME280;68187;42.682;23.352;2024-01-30T00:23:42;97113.31;;;-0.06;61.41
78835;BME280;68187;42.682;23.352;2024-01-30T00:26:09;97111.38;;;-0.04;60.81
78835;BME280;68187;42.682;23.352;2024-01-30T00:28:37;97117.50;;;-0.13;60.93
78835;BME280;68187;42.682;23.352;2024-01-30T00:31:04;97116.00;;;-0.16;61.39
78835;BME280;68187;42.682;23.352;2024-01-30T00:33:31;97114.00;;;-0.04;61.33
78835;BME280;68187;42.682;23.352;2024-01-30T00:35:58;97115.19;;;0.02;60.58
78835;BME280;68187;42.682;23.352;2024-01-30T00:38:25;97117.25;;;-0.02;60.45
78835;BME280;68187;42.682;23.352;2024-01-30T00:40:53;97117.84;;;-0.08;61.13
78835;BME280;68187;42.682;23.352;2024-01-30T00:43:20;97120.63;;;-0.10;60.49
78835;BME280;68187;42.682;23.352;2024-01-30T00:45:47;97118.59;;;-0.16;60.39
78835;BME280;68187;42.682;23.352;2024-01-30T00:48:14;97115.13;;;-0.24;61.30
78835;BME280;68187;42.682;23.352;2024-01-30T00:50:41;97126.72;;;-0.19;61.63
78835;BME280;68187;42.682;23.352;2024-01-30T00:53:08;97114.84;;;-0.21;61.24
78835;BME280;68187;42.682;23.352;2024-01-30T00:55:35;97113.19;;;-0.22;61.24
78835;BME280;68187;42.682;23.352;2024-01-30T00:58:04;97112.38;;;-0.23;61.83
78835;BME280;68187;42.682;23.352;2024-01-30T01:00:32;97116.75;;;-0.23;61.21
78835;BME280;68187;42.682;23.352;2024-01-30T01:02:59;97116.16;;;-0.17;61.73
78835;BME280;68187;42.682;23.352;2024-01-30T01:05:26;97113.28;;;-0.14;62.63
78835;BME280;68187;42.682;23.352;2024-01-30T01:07:53;97118.47;;;-0.14;61.02
78835;BME280;68187;42.682;23.352;2024-01-30T01:10:20;97114.47;;;-0.26;62.04
78835;BME280;68187;42.682;23.352;2024-01-30T01:12:48;97112.31;;;-0.31;61.98
78835;BME280;68187;42.682;23.352;2024-01-30T01:15:16;97115.84;;;-0.32;62.12
78835;BME280;68187;42.682;23.352;2024-01-30T01:17:43;97122.97;;;-0.51;63.00
78835;BME280;68187;42.682;23.352;2024-01-30T01:20:11;97127.50;;;-0.53;63.13
78835;BME280;68187;42.682;23.352;2024-01-30T01:22:38;97118.91;;;-0.54;62.77
78835;BME280;68187;42.682;23.352;2024-01-30T01:25:06;97123.41;;;-0.56;63.03
78835;BME280;68187;42.682;23.352;2024-01-30T01:27:33;97123.47;;;-0.65;63.79
78835;BME280;68187;42.682;23.352;2024-01-30T01:30:06;97118.28;;;-0.65;63.46
78835;BME280;68187;42.682;23.352;2024-01-30T01:32:35;97118.94;;;-0.63;63.88
78835;BME280;68187;42.682;23.352;2024-01-30T01:35:04;97122.38;;;-0.63;63.91
78835;BME280;68187;42.682;23.352;2024-01-30T01:37:32;97121.09;;;-0.59;63.52
78835;BME280;68187;42.682;23.352;2024-01-30T01:39:59;97131.66;;;-0.60;63.56
78835;BME280;68187;42.682;23.352;2024-01-30T01:42:26;97122.25;;;-0.61;63.64
78835;BME280;68187;42.682;23.352;2024-01-30T01:44:53;97120.75;;;-0.64;63.37
78835;BME280;68187;42.682;23.352;2024-01-30T01:47:20;97116.56;;;-0.75;64.29
78835;BME280;68187;42.682;23.352;2024-01-30T01:49:49;97112.75;;;-0.70;63.97
78835;BME280;68187;42.682;23.352;2024-01-30T01:52:17;97118.22;;;-0.74;63.77
78835;BME280;68187;42.682;23.352;2024-01-30T01:54:44;97117.63;;;-0.67;63.87
78835;BME280;68187;42.682;23.352;2024-01-30T01:57:11;97120.88;;;-0.65;63.14
78835;BME280;68187;42.682;23.352;2024-01-30T01:59:38;97124.34;;;-0.75;63.43
78835;BME280;68187;42.682;23.352;2024-01-30T02:02:07;97125.34;;;-0.76;63.97
78835;BME280;68187;42.682;23.352;2024-01-30T02:04:38;97125.31;;;-0.93;64.91
78835;BME280;68187;42.682;23.352;2024-01-30T02:07:06;97124.00;;;-0.80;64.03
78835;BME280;68187;42.682;23.352;2024-01-30T02:09:34;97132.13;;;-0.75;64.43
78835;BME280;68187;42.682;23.352;2024-01-30T02:12:00;97129.53;;;-0.75;64.76
78835;BME280;68187;42.682;23.352;2024-01-30T02:14:27;97135.47;;;-0.82;65.33
78835;BME280;68187;42.682;23.352;2024-01-30T02:16:54;97127.53;;;-0.81;64.66
78835;BME280;68187;42.682;23.352;2024-01-30T02:19:21;97124.50;;;-0.76;64.37
78835;BME280;68187;42.682;23.352;2024-01-30T02:21:50;97127.78;;;-0.74;64.30
78835;BME280;68187;42.682;23.352;2024-01-30T02:24:17;97129.78;;;-0.68;64.10
78835;BME280;68187;42.682;23.352;2024-01-30T02:26:44;97124.59;;;-0.68;65.05
78835;BME280;68187;42.682;23.352;2024-01-30T02:29:11;97121.69;;;-0.65;64.59
78835;BME280;68187;42.682;23.352;2024-01-30T02:31:37;97126.72;;;-0.63;64.20
78835;BME280;68187;42.682;23.352;2024-01-30T02:34:04;97123.41;;;-0.56;63.78
78835;BME280;68187;42.682;23.352;2024-01-30T02:36:31;97121.72;;;-0.47;63.25
78835;BME280;68187;42.682;23.352;2024-01-30T02:38:59;97122.59;;;-0.56;63.40
78835;BME280;68187;42.682;23.352;2024-01-30T02:41:26;97124.97;;;-0.45;63.50
78835;BME280;68187;42.682;23.352;2024-01-30T02:43:53;97124.84;;;-0.44;62.61
78835;BME280;68187;42.682;23.352;2024-01-30T02:46:20;97122.47;;;-0.37;63.29
78835;BME280;68187;42.682;23.352;2024-01-30T02:48:47;97124.78;;;-0.34;62.40
78835;BME280;68187;42.682;23.352;2024-01-30T02:51:14;97123.59;;;-0.40;62.54
78835;BME280;68187;42.682;23.352;2024-01-30T02:53:41;97128.25;;;-0.43;62.11
78835;BME280;68187;42.682;23.352;2024-01-30T02:56:09;97127.50;;;-0.36;61.76
78835;BME280;68187;42.682;23.352;2024-01-30T02:58:37;97122.31;;;-0.36;61.68
78835;BME280;68187;42.682;23.352;2024-01-30T03:01:04;97129.22;;;-0.44;62.98
78835;BME280;68187;42.682;23.352;2024-01-30T03:03:31;97129.38;;;-0.46;62.56
78835;BME280;68187;42.682;23.352;2024-01-30T03:05:59;97118.78;;;-0.35;62.29
78835;BME280;68187;42.682;23.352;2024-01-30T03:08:26;97116.56;;;-0.30;62.72
78835;BME280;68187;42.682;23.352;2024-01-30T03:10:53;97118.44;;;-0.32;62.28
78835;BME280;68187;42.682;23.352;2024-01-30T03:13:21;97115.56;;;-0.29;62.06
78835;BME280;68187;42.682;23.352;2024-01-30T03:15:50;97119.19;;;-0.22;61.79
78835;BME280;68187;42.682;23.352;2024-01-30T03:18:17;97105.78;;;-0.17;61.15
78835;BME280;68187;42.682;23.352;2024-01-30T03:20:44;97109.84;;;-0.15;60.16
78835;BME280;68187;42.682;23.352;2024-01-30T03:23:11;97112.97;;;-0.11;60.53
78835;BME280;68187;42.682;23.352;2024-01-30T03:25:38;97113.94;;;-0.12;61.31
78835;BME280;68187;42.682;23.352;2024-01-30T03:28:05;97108.88;;;-0.14;60.32
78835;BME280;68187;42.682;23.352;2024-01-30T03:30:34;97118.47;;;-0.14;60.84
78835;BME280;68187;42.682;23.352;2024-01-30T03:33:01;97106.88;;;-0.20;60.70
78835;BME280;68187;42.682;23.352;2024-01-30T03:35:28;97114.41;;;-0.34;60.67
78835;BME280;68187;42.682;23.352;2024-01-30T03:37:55;97112.16;;;-0.29;60.83
78835;BME280;68187;42.682;23.352;2024-01-30T03:40:22;97105.72;;;-0.25;61.40
78835;BME280;68187;42.682;23.352;2024-01-30T03:42:48;97102.97;;;-0.24;61.84
78835;BME280;68187;42.682;23.352;2024-01-30T03:45:15;97104.06;;;-0.26;62.41
78835;BME280;68187;42.682;23.352;2024-01-30T03:47:46;97105.28;;;-0.21;62.33
78835;BME280;68187;42.682;23.352;2024-01-30T03:50:13;97101.41;;;-0.52;62.35
78835;BME280;68187;42.682;23.352;2024-01-30T03:52:40;97100.00;;;-0.46;62.86
78835;BME280;68187;42.682;23.352;2024-01-30T03:55:07;97101.63;;;-0.45;62.01
78835;BME280;68187;42.682;23.352;2024-01-30T03:57:34;97106.06;;;-0.38;60.99
78835;BME280;68187;42.682;23.352;2024-01-30T04:00:01;97090.06;;;-0.33;59.27
78835;BME280;68187;42.682;23.352;2024-01-30T04:02:30;97089.69;;;-0.38;59.41
78835;BME280;68187;42.682;23.352;2024-01-30T04:04:58;97090.44;;;-0.28;60.00
78835;BME280;68187;42.682;23.352;2024-01-30T04:07:25;97088.13;;;-0.49;59.83
78835;BME280;68187;42.682;23.352;2024-01-30T04:09:52;97090.50;;;-0.73;60.04
78835;BME280;68187;42.682;23.352;2024-01-30T04:12:19;97093.31;;;-0.66;59.24
78835;BME280;68187;42.682;23.352;2024-01-30T04:14:46;97096.38;;;-0.53;59.51
78835;BME280;68187;42.682;23.352;2024-01-30T04:17:13;97099.03;;;-0.45;59.91
78835;BME280;68187;42.682;23.352;2024-01-30T04:19:40;97101.41;;;-0.52;60.37
78835;BME280;68187;42.682;23.352;2024-01-30T04:22:08;97098.91;;;-0.61;60.20
78835;BME280;68187;42.682;23.352;2024-01-30T04:24:35;97102.22;;;-0.51;60.11
78835;BME280;68187;42.682;23.352;2024-01-30T04:27:02;97092.59;;;-0.41;60.00
78835;BME280;68187;42.682;23.352;2024-01-30T04:29:29;97094.75;;;-0.37;60.37
78835;BME280;68187;42.682;23.352;2024-01-30T04:31:57;97104.81;;;-0.34;60.76
78835;BME280;68187;42.682;23.352;2024-01-30T04:34:24;97110.09;;;-0.43;60.66
78835;BME280;68187;42.682;23.352;2024-01-30T04:36:52;97106.91;;;-0.37;60.25
78835;BME280;68187;42.682;23.352;2024-01-30T04:39:20;97112.91;;;-0.37;60.16
78835;BME280;68187;42.682;23.352;2024-01-30T04:41:47;97102.59;;;-0.46;61.09
78835;BME280;68187;42.682;23.352;2024-01-30T04:44:14;97112.44;;;-0.50;61.05
78835;BME280;68187;42.682;23.352;2024-01-30T04:46:41;97110.38;;;-0.46;61.16
78835;BME280;68187;42.682;23.352;2024-01-30T04:49:08;97110.59;;;-0.57;60.83
78835;BME280;68187;42.682;23.352;2024-01-30T04:51:35;97115.69;;;-0.65;61.57
78835;BME280;68187;42.682;23.352;2024-01-30T04:54:02;97116.94;;;-0.69;61.77
78835;BME280;68187;42.682;23.352;2024-01-30T04:56:30;97129.22;;;-0.62;61.40
78835;BME280;68187;42.682;23.352;2024-01-30T04:58:57;97131.03;;;-0.54;61.66
78835;BME280;68187;42.682;23.352;2024-01-30T05:01:24;97126.91;;;-0.65;60.87
78835;BME280;68187;42.682;23.352;2024-01-30T05:03:51;97133.72;;;-0.64;61.41
78835;BME280;68187;42.682;23.352;2024-01-30T05:06:24;97124.16;;;-0.63;60.81
78835;BME280;68187;42.682;23.352;2024-01-30T05:08:51;97128.09;;;-0.59;60.90
78835;BME280;68187;42.682;23.352;2024-01-30T05:11:18;97134.84;;;-0.66;60.35
78835;BME280;68187;42.682;23.352;2024-01-30T05:13:46;97128.88;;;-0.59;59.89
78835;BME280;68187;42.682;23.352;2024-01-30T05:16:13;97132.25;;;-0.66;60.72
78835;BME280;68187;42.682;23.352;2024-01-30T05:18:40;97133.50;;;-0.70;60.60
78835;BME280;68187;42.682;23.352;2024-01-30T05:21:07;97125.03;;;-0.73;60.97
78835;BME280;68187;42.682;23.352;2024-01-30T05:23:34;97129.09;;;-0.70;61.13
78835;BME280;68187;42.682;23.352;2024-01-30T05:26:01;97132.34;;;-0.86;61.14
78835;BME280;68187;42.682;23.352;2024-01-30T05:28:29;97141.66;;;-0.93;61.76
78835;BME280;68187;42.682;23.352;2024-01-30T05:30:57;97145.22;;;-0.94;61.40
78835;BME280;68187;42.682;23.352;2024-01-30T05:33:24;97140.47;;;-0.98;61.74
78835;BME280;68187;42.682;23.352;2024-01-30T05:35:51;97134.50;;;-1.08;60.85
78835;BME280;68187;42.682;23.352;2024-01-30T05:38:20;97134.75;;;-1.02;61.73
78835;BME280;68187;42.682;23.352;2024-01-30T05:40:47;97139.13;;;-1.02;61.71
78835;BME280;68187;42.682;23.352;2024-01-30T05:43:13;97142.00;;;-1.05;61.61
78835;BME280;68187;42.682;23.352;2024-01-30T05:45:41;97140.28;;;-1.14;61.85
78835;BME280;68187;42.682;23.352;2024-01-30T05:48:09;97138.78;;;-1.17;62.19
78835;BME280;68187;42.682;23.352;2024-01-30T05:50:36;97142.91;;;-1.24;62.77
78835;BME280;68187;42.682;23.352;2024-01-30T05:53:03;97143.81;;;-1.15;62.36
78835;BME280;68187;42.682;23.352;2024-01-30T05:55:30;97139.38;;;-1.32;62.47
78835;BME280;68187;42.682;23.352;2024-01-30T05:57:57;97140.34;;;-1.43;62.88
78835;BME280;68187;42.682;23.352;2024-01-30T06:00:24;97145.25;;;-1.40;62.63
78835;BME280;68187;42.682;23.352;2024-01-30T06:02:51;97147.97;;;-1.32;62.11
78835;BME280;68187;42.682;23.352;2024-01-30T06:05:19;97143.31;;;-1.28;62.29
78835;BME280;68187;42.682;23.352;2024-01-30T06:07:46;97149.28;;;-1.18;62.47
78835;BME280;68187;42.682;23.352;2024-01-30T06:10:13;97151.81;;;-1.09;62.32
78835;BME280;68187;42.682;23.352;2024-01-30T06:12:40;97151.47;;;-1.14;62.76
78835;BME280;68187;42.682;23.352;2024-01-30T06:15:08;97150.75;;;-1.16;62.79
78835;BME280;68187;42.682;23.352;2024-01-30T06:17:35;97150.47;;;-1.13;62.56
78835;BME280;68187;42.682;23.352;2024-01-30T06:20:03;97153.63;;;-1.09;62.59
78835;BME280;68187;42.682;23.352;2024-01-30T06:22:31;97157.31;;;-1.12;62.83
78835;BME280;68187;42.682;23.352;2024-01-30T06:24:58;97150.44;;;-1.03;62.50
78835;BME280;68187;42.682;23.352;2024-01-30T06:27:25;97149.44;;;-0.93;62.31
78835;BME280;68187;42.682;23.352;2024-01-30T06:29:52;97148.72;;;-0.85;62.28
78835;BME280;68187;42.682;23.352;2024-01-30T06:32:19;97154.69;;;-0.75;63.04
78835;BME280;68187;42.682;23.352;2024-01-30T06:34:46;97158.47;;;-0.69;62.12
78835;BME280;68187;42.682;23.352;2024-01-30T06:37:15;97149.97;;;-0.62;62.85
78835;BME280;68187;42.682;23.352;2024-01-30T06:39:44;97151.00;;;-0.55;62.07
78835;BME280;68187;42.682;23.352;2024-01-30T06:42:10;97154.72;;;-0.40;62.64
78835;BME280;68187;42.682;23.352;2024-01-30T06:44:38;97147.38;;;-0.27;62.06
78835;BME280;68187;42.682;23.352;2024-01-30T06:47:05;97159.47;;;-0.18;63.15
78835;BME280;68187;42.682;23.352;2024-01-30T06:49:31;97144.50;;;-0.06;62.04
78835;BME280;68187;42.682;23.352;2024-01-30T06:51:58;97143.38;;;-0.04;62.26
78835;BME280;68187;42.682;23.352;2024-01-30T06:54:25;97154.72;;;0.13;62.12
78835;BME280;68187;42.682;23.352;2024-01-30T07:10:49;97159.28;;;0.62;52.99
78835;BME280;68187;42.682;23.352;2024-01-30T07:13:16;97159.69;;;0.76;52.61
78835;BME280;68187;42.682;23.352;2024-01-30T07:15:43;97145.09;;;0.83;52.45
78835;BME280;68187;42.682;23.352;2024-01-30T07:18:10;97146.78;;;0.92;52.23
78835;BME280;68187;42.682;23.352;2024-01-30T07:20:38;97147.53;;;0.84;51.29
78835;BME280;68187;42.682;23.352;2024-01-30T07:23:08;97158.31;;;0.89;52.07
78835;BME280;68187;42.682;23.352;2024-01-30T07:25:36;97155.22;;;0.94;51.45
78835;BME280;68187;42.682;23.352;2024-01-30T07:28:05;97155.94;;;1.04;51.83
78835;BME280;68187;42.682;23.352;2024-01-30T07:30:32;97156.88;;;0.95;50.18
78835;BME280;68187;42.682;23.352;2024-01-30T07:32:59;97151.13;;;0.83;50.27
78835;BME280;68187;42.682;23.352;2024-01-30T07:35:26;97149.38;;;0.92;50.46
78835;BME280;68187;42.682;23.352;2024-01-30T07:37:53;97150.09;;;1.02;49.82
78835;BME280;68187;42.682;23.352;2024-01-30T07:40:20;97154.72;;;1.24;50.79
78835;BME280;68187;42.682;23.352;2024-01-30T07:42:48;97144.84;;;1.43;49.61
78835;BME280;68187;42.682;23.352;2024-01-30T07:45:16;97153.13;;;1.39;48.84
78835;BME280;68187;42.682;23.352;2024-01-30T07:47:48;97141.78;;;1.40;49.03
78835;BME280;68187;42.682;23.352;2024-01-30T07:50:15;97145.38;;;1.55;48.91
78835;BME280;68187;42.682;23.352;2024-01-30T07:52:42;97143.28;;;1.67;47.11
78835;BME280;68187;42.682;23.352;2024-01-30T07:55:09;97153.72;;;1.91;47.39
78835;BME280;68187;42.682;23.352;2024-01-30T07:57:38;97147.38;;;1.93;47.16
78835;BME280;68187;42.682;23.352;2024-01-30T08:00:06;97156.19;;;1.92;46.63
78835;BME280;68187;42.682;23.352;2024-01-30T08:02:35;97146.59;;;1.93;46.30
78835;BME280;68187;42.682;23.352;2024-01-30T08:05:02;97137.31;;;2.14;46.57
78835;BME280;68187;42.682;23.352;2024-01-30T08:07:29;97136.84;;;2.27;48.29
78835;BME280;68187;42.682;23.352;2024-01-30T08:09:56;97136.34;;;2.24;46.08
78835;BME280;68187;42.682;23.352;2024-01-30T08:12:23;97138.63;;;2.43;45.91
78835;BME280;68187;42.682;23.352;2024-01-30T08:14:50;97134.03;;;2.53;45.48
78835;BME280;68187;42.682;23.352;2024-01-30T08:17:17;97133.38;;;2.59;45.18
78835;BME280;68187;42.682;23.352;2024-01-30T08:19:45;97139.53;;;2.74;45.34
78835;BME280;68187;42.682;23.352;2024-01-30T08:22:12;97144.41;;;2.85;44.60
78835;BME280;68187;42.682;23.352;2024-01-30T08:24:41;97146.00;;;2.94;43.87
78835;BME280;68187;42.682;23.352;2024-01-30T08:27:08;97141.56;;;3.03;43.60
78835;BME280;68187;42.682;23.352;2024-01-30T08:29:35;97136.63;;;3.16;43.39
78835;BME280;68187;42.682;23.352;2024-01-30T08:32:03;97149.47;;;2.78;44.52
78835;BME280;68187;42.682;23.352;2024-01-30T08:34:30;97143.00;;;3.13;43.47
78835;BME280;68187;42.682;23.352;2024-01-30T08:36:59;97141.88;;;3.08;44.16
78835;BME280;68187;42.682;23.352;2024-01-30T08:39:25;97158.22;;;2.94;44.68
78835;BME280;68187;42.682;23.352;2024-01-30T08:41:53;97146.22;;;3.23;44.03
78835;BME280;68187;42.682;23.352;2024-01-30T08:44:19;97139.72;;;3.50;43.69
78835;BME280;68187;42.682;23.352;2024-01-30T08:46:46;97140.53;;;3.20;43.58
78835;BME280;68187;42.682;23.352;2024-01-30T08:49:14;97144.94;;;3.50;42.96
78835;BME280;68187;42.682;23.352;2024-01-30T08:51:42;97147.44;;;3.74;43.94
78835;BME280;68187;42.682;23.352;2024-01-30T08:54:11;97149.19;;;4.04;43.32
78835;BME280;68187;42.682;23.352;2024-01-30T08:56:38;97149.25;;;3.96;43.14
78835;BME280;68187;42.682;23.352;2024-01-30T08:59:04;97158.31;;;4.08;42.72
78835;BME280;68187;42.682;23.352;2024-01-30T09:01:31;97162.50;;;3.95;42.02
78835;BME280;68187;42.682;23.352;2024-01-30T09:03:58;97164.41;;;3.01;43.84
78835;BME280;68187;42.682;23.352;2024-01-30T09:06:25;97162.84;;;2.75;45.21
78835;BME280;68187;42.682;23.352;2024-01-30T09:08:53;97158.91;;;2.79;45.03
78835;BME280;68187;42.682;23.352;2024-01-30T09:11:22;97157.44;;;2.85;45.39
78835;BME280;68187;42.682;23.352;2024-01-30T09:13:49;97151.56;;;3.38;44.73
78835;BME280;68187;42.682;23.352;2024-01-30T09:16:16;97143.94;;;3.82;43.14
78835;BME280;68187;42.682;23.352;2024-01-30T09:18:43;97148.41;;;4.41;42.68
78835;BME280;68187;42.682;23.352;2024-01-30T09:21:10;97145.00;;;4.41;41.71
78835;BME280;68187;42.682;23.352;2024-01-30T09:23:37;97132.06;;;3.79;44.15
78835;BME280;68187;42.682;23.352;2024-01-30T09:26:04;97135.31;;;4.41;43.73
78835;BME280;68187;42.682;23.352;2024-01-30T09:28:32;97136.13;;;4.79;43.36
78835;BME280;68187;42.682;23.352;2024-01-30T09:30:59;97140.34;;;4.65;42.73
78835;BME280;68187;42.682;23.352;2024-01-30T09:33:26;97138.72;;;4.64;42.99
78835;BME280;68187;42.682;23.352;2024-01-30T09:35:53;97138.75;;;4.27;42.84
78835;BME280;68187;42.682;23.352;2024-01-30T09:38:20;97137.13;;;5.07;42.76
78835;BME280;68187;42.682;23.352;2024-01-30T09:40:53;97129.28;;;5.57;41.62
78835;BME280;68187;42.682;23.352;2024-01-30T09:43:22;97131.84;;;4.49;41.86
78835;BME280;68187;42.682;23.352;2024-01-30T09:45:52;97129.19;;;4.11;43.75
78835;BME280;68187;42.682;23.352;2024-01-30T09:48:20;97128.44;;;5.06;42.80
78835;BME280;68187;42.682;23.352;2024-01-30T09:50:47;97125.19;;;5.34;41.71
78835;BME280;68187;42.682;23.352;2024-01-30T09:53:14;97126.72;;;5.43;41.01
78835;BME280;68187;42.682;23.352;2024-01-30T09:55:42;97113.41;;;5.95;40.88
78835;BME280;68187;42.682;23.352;2024-01-30T09:58:11;97119.78;;;6.56;42.06
78835;BME280;68187;42.682;23.352;2024-01-30T10:00:38;97114.56;;;6.90;39.78
78835;BME280;68187;42.682;23.352;2024-01-30T10:03:07;97108.50;;;6.62;37.30
78835;BME280;68187;42.682;23.352;2024-01-30T10:05:35;97114.84;;;6.46;37.84
78835;BME280;68187;42.682;23.352;2024-01-30T10:08:06;97112.06;;;6.82;38.57
78835;BME280;68187;42.682;23.352;2024-01-30T10:10:33;97102.06;;;6.64;38.11
78835;BME280;68187;42.682;23.352;2024-01-30T10:13:01;97109.16;;;6.70;38.36
78835;BME280;68187;42.682;23.352;2024-01-30T10:15:28;97104.69;;;6.36;38.61
78835;BME280;68187;42.682;23.352;2024-01-30T10:17:55;97098.66;;;6.70;38.60
78835;BME280;68187;42.682;23.352;2024-01-30T10:20:26;97106.69;;;6.13;39.16
78835;BME280;68187;42.682;23.352;2024-01-30T10:22:53;97106.69;;;6.34;39.41
78835;BME280;68187;42.682;23.352;2024-01-30T10:25:21;97102.97;;;6.01;38.52
78835;BME280;68187;42.682;23.352;2024-01-30T10:27:52;97104.47;;;5.39;40.59
78835;BME280;68187;42.682;23.352;2024-01-30T10:30:19;97107.75;;;5.76;40.08
78835;BME280;68187;42.682;23.352;2024-01-30T10:32:46;97106.16;;;5.82;40.56
78835;BME280;68187;42.682;23.352;2024-01-30T10:35:13;97110.00;;;6.22;38.91
78835;BME280;68187;42.682;23.352;2024-01-30T10:37:43;97109.97;;;6.15;38.74
78835;BME280;68187;42.682;23.352;2024-01-30T10:40:14;97109.06;;;5.87;39.22
78835;BME280;68187;42.682;23.352;2024-01-30T10:42:42;97106.59;;;6.77;38.72
78835;BME280;68187;42.682;23.352;2024-01-30T10:45:10;97113.50;;;6.57;38.37
78835;BME280;68187;42.682;23.352;2024-01-30T10:47:40;97099.66;;;6.41;37.55
78835;BME280;68187;42.682;23.352;2024-01-30T10:50:08;97093.44;;;6.42;38.32
78835;BME280;68187;42.682;23.352;2024-01-30T10:52:36;97084.94;;;6.40;37.98
78835;BME280;68187;42.682;23.352;2024-01-30T10:55:05;97087.69;;;6.88;37.92
78835;BME280;68187;42.682;23.352;2024-01-30T10:57:34;97088.06;;;6.85;37.16
78835;BME280;68187;42.682;23.352;2024-01-30T11:00:04;97086.72;;;6.33;38.35
78835;BME280;68187;42.682;23.352;2024-01-30T11:02:37;97090.44;;;5.61;39.32
78835;BME280;68187;42.682;23.352;2024-01-30T11:05:05;97072.03;;;4.89;41.00
78835;BME280;68187;42.682;23.352;2024-01-30T11:07:32;97070.13;;;4.40;41.56
78835;BME280;68187;42.682;23.352;2024-01-30T11:10:00;97076.44;;;5.03;41.76
78835;BME280;68187;42.682;23.352;2024-01-30T11:12:30;97075.16;;;5.50;40.59
78835;BME280;68187;42.682;23.352;2024-01-30T11:15:04;97069.50;;;4.67;41.58
78835;BME280;68187;42.682;23.352;2024-01-30T11:17:47;97060.88;;;5.31;41.10
78835;BME280;68187;42.682;23.352;2024-01-30T11:20:21;97069.03;;;6.00;39.71
78835;BME280;68187;42.682;23.352;2024-01-30T11:22:51;97060.69;;;6.11;39.25
78835;BME280;68187;42.682;23.352;2024-01-30T11:25:19;97068.41;;;5.76;40.04
78835;BME280;68187;42.682;23.352;2024-01-30T11:27:50;97061.97;;;5.22;40.41
78835;BME280;68187;42.682;23.352;2024-01-30T11:30:24;97057.66;;;5.15;41.36
78835;BME280;68187;42.682;23.352;2024-01-30T11:33:01;97064.69;;;4.41;41.29
78835;BME280;68187;42.682;23.352;2024-01-30T11:35:32;97068.94;;;5.51;40.66
78835;BME280;68187;42.682;23.352;2024-01-30T11:37:59;97067.44;;;5.99;39.43
78835;BME280;68187;42.682;23.352;2024-01-30T11:40:27;97063.00;;;6.55;38.52
78835;BME280;68187;42.682;23.352;2024-01-30T11:42:58;97056.66;;;7.11;37.60
78835;BME280;68187;42.682;23.352;2024-01-30T11:45:26;97054.16;;;6.56;37.62
78835;BME280;68187;42.682;23.352;2024-01-30T11:47:53;97060.13;;;6.15;39.10
78835;BME280;68187;42.682;23.352;2024-01-30T11:50:20;97069.22;;;5.41;39.87
78835;BME280;68187;42.682;23.352;2024-01-30T11:52:47;97061.50;;;5.19;40.41
78835;BME280;68187;42.682;23.352;2024-01-30T11:55:14;97060.28;;;4.71;42.43
78835;BME280;68187;42.682;23.352;2024-01-30T11:57:42;97051.25;;;5.02;41.60
78835;BME280;68187;42.682;23.352;2024-01-30T12:00:16;97043.03;;;5.41;39.96
78835;BME280;68187;42.682;23.352;2024-01-30T12:02:44;97044.94;;;4.97;41.78
78835;BME280;68187;42.682;23.352;2024-01-30T12:05:15;97044.31;;;4.66;42.66
78835;BME280;68187;42.682;23.352;2024-01-30T12:07:44;97026.69;;;4.16;43.60
78835;BME280;68187;42.682;23.352;2024-01-30T12:10:12;97026.31;;;5.06;41.70
78835;BME280;68187;42.682;23.352;2024-01-30T12:12:41;97022.66;;;5.79;40.90
78835;BME280;68187;42.682;23.352;2024-01-30T12:15:10;97017.75;;;6.18;39.01
78835;BME280;68187;42.682;23.352;2024-01-30T12:17:38;97012.03;;;6.36;39.00
78835;BME280;68187;42.682;23.352;2024-01-30T12:20:06;97011.53;;;6.88;37.82
78835;BME280;68187;42.682;23.352;2024-01-30T12:22:36;97011.94;;;6.98;36.91
78835;BME280;68187;42.682;23.352;2024-01-30T12:25:04;97010.88;;;7.40;36.63
78835;BME280;68187;42.682;23.352;2024-01-30T12:27:31;96998.56;;;7.47;35.80
78835;BME280;68187;42.682;23.352;2024-01-30T12:29:59;97001.28;;;7.06;36.68
78835;BME280;68187;42.682;23.352;2024-01-30T12:32:25;96994.75;;;7.56;35.57
78835;BME280;68187;42.682;23.352;2024-01-30T12:34:56;96997.41;;;8.15;34.86
78835;BME280;68187;42.682;23.352;2024-01-30T12:37:23;96997.41;;;8.41;34.34
78835;BME280;68187;42.682;23.352;2024-01-30T12:39:51;96990.19;;;8.87;33.51
78835;BME280;68187;42.682;23.352;2024-01-30T12:42:19;96986.81;;;8.67;33.14
78835;BME280;68187;42.682;23.352;2024-01-30T12:44:47;96982.41;;;8.09;34.22
78835;BME280;68187;42.682;23.352;2024-01-30T12:47:14;96982.81;;;7.47;35.32
78835;BME280;68187;42.682;23.352;2024-01-30T12:49:42;96987.25;;;7.46;35.98
78835;BME280;68187;42.682;23.352;2024-01-30T12:52:11;96989.25;;;7.44;36.36
78835;BME280;68187;42.682;23.352;2024-01-30T12:54:38;96979.72;;;7.37;36.33
78835;BME280;68187;42.682;23.352;2024-01-30T12:57:05;96986.16;;;7.21;36.50
78835;BME280;68187;42.682;23.352;2024-01-30T12:59:32;96964.63;;;6.44;37.34
78835;BME280;68187;42.682;23.352;2024-01-30T13:02:00;96976.59;;;7.00;36.85
78835;BME280;68187;42.682;23.352;2024-01-30T13:04:28;96979.09;;;6.27;38.53
78835;BME280;68187;42.682;23.352;2024-01-30T13:06:55;96970.97;;;7.03;36.25
78835;BME280;68187;42.682;23.352;2024-01-30T13:09:24;96971.19;;;7.08;37.20
78835;BME280;68187;42.682;23.352;2024-01-30T13:11:51;96969.09;;;6.97;37.18